Rechercher aéroport 
image banner adimage banner ad
image banner ad

SSCO - Comandante Marilda Zaiden de Mesquita Airport

Situé à Capão Do Leão, Brazil

ICAO - SSCO, IATA -

Données fournies par Airmate  

Information générale

Coordonnées: S31°46'27" W52°27'5"
Élévation : 32 feet MSL.
Variation magnétique : -15° East
Voir autres Aéroports à Rio Grande do Sul

Données opérationnelles

Accessible au public
Heure actuelle UTC:
Heure actuelle locale:
Météo à : SBPK - Pelotas ( 13 km )
TAF: TAF SBPK 300900Z 3012/0112 06005KT CAVOK TX25/3016Z TN19/0106Z BECMG 0100/0102 36010KT 6000 TSRA SCT030 FEW035CB RMK PED
Voir NOTAMs / SUP AIP / TFR affectant cet aéroport [VIEW]
Fréquences de communication: [VIEW]

Pistes:

Identifiant RWYQFULongueur (ft)Largeur (ft)SurfaceLDA (ft)
03262459GRASS
21262459GRASS

Coordonnées de l'aéroport

Adresse: Capão Do Leão Brazil

Vue satellite de SSCO